Time;durP1;ratioP1;P1;durP2;ratioP2;P2;SDS_P1;SDS_P2;PMS_P1;PMS_P2;Temp;Humidity;BMP_temperature;BMP_pressure;BME280_temperature;BME280_humidity;BME280_pressure;Samples;Min_cycle;Max_cycle;Signal;HPM_P1;HPM_P2
2021/07/07 00:00:25;;;;;;;1999.90;999.90;;;;;;;24.64;70.71;97977.59;5094373;28;20198;-65
2021/07/07 00:02:52;;;;;;;1999.90;999.90;;;;;;;24.54;71.12;97974.50;5090286;28;20052;-65
2021/07/07 00:05:20;;;;;;;1999.90;999.90;;;;;;;24.20;72.46;97966.97;5089488;28;20055;-65
2021/07/07 00:07:47;;;;;;;1999.90;999.90;;;;;;;24.16;72.81;97966.25;5075382;28;20056;-65
2021/07/07 00:10:18;;;;;;;1999.90;999.90;;;;;;;24.15;72.85;97970.28;5090306;28;20044;-65
2021/07/07 00:12:47;;;;;;;1999.90;999.90;;;;;;;24.30;72.44;97972.91;5083751;28;20429;-65
2021/07/07 00:15:18;;;;;;;1999.90;999.90;;;;;;;24.46;72.06;97967.41;5077859;28;20058;-66
2021/07/07 00:17:45;;;;;;;1999.90;999.90;;;;;;;24.43;72.17;97971.88;5085283;28;20445;-65
2021/07/07 00:20:13;;;;;;;1999.90;999.90;;;;;;;24.41;71.91;97968.69;5088625;28;20094;-65
2021/07/07 00:22:41;;;;;;;1999.90;999.90;;;;;;;24.33;72.10;97970.00;5078400;28;20039;-65
2021/07/07 00:25:09;;;;;;;1999.90;999.90;;;;;;;23.51;75.92;97967.09;5088599;28;20044;-65
2021/07/07 00:27:35;;;;;;;1999.90;999.90;;;;;;;23.53;76.21;97959.00;5084197;28;20430;-65
2021/07/07 00:30:04;;;;;;;1999.90;999.90;;;;;;;23.52;76.14;97962.25;5079583;28;20106;-65
2021/07/07 00:32:31;;;;;;;1999.90;999.90;;;;;;;23.79;75.15;97958.66;5092780;28;20191;-65
2021/07/07 00:34:57;;;;;;;1999.90;999.90;;;;;;;23.95;74.29;97958.09;5091580;28;20222;-65
2021/07/07 00:37:24;;;;;;;1999.90;999.90;;;;;;;24.04;74.13;97952.69;5087007;28;20036;-65
2021/07/07 00:39:51;;;;;;;1999.90;999.90;;;;;;;24.08;73.83;97964.75;5093192;28;20117;-65
2021/07/07 00:42:18;;;;;;;1999.90;999.90;;;;;;;24.13;73.66;97960.63;5084901;28;20056;-65
2021/07/07 00:44:44;;;;;;;1999.90;999.90;;;;;;;24.19;73.57;97968.22;5084078;28;20069;-65
2021/07/07 00:47:11;;;;;;;1999.90;999.90;;;;;;;24.16;73.63;97963.44;5092796;28;20437;-65
2021/07/07 00:49:37;;;;;;;1999.90;999.90;;;;;;;24.11;73.83;97961.06;5083916;28;20067;-65
2021/07/07 00:52:04;;;;;;;1999.90;999.90;;;;;;;24.15;73.63;97966.69;5075657;28;20237;-65
2021/07/07 00:54:33;;;;;;;1999.90;999.90;;;;;;;24.20;73.43;97966.19;5080298;28;20102;-65
2021/07/07 00:57:00;;;;;;;1999.90;999.90;;;;;;;24.21;73.45;97968.56;5083239;28;20145;-65
2021/07/07 00:59:28;;;;;;;1999.90;999.90;;;;;;;24.19;73.38;97973.88;5077938;28;20158;-65
2021/07/07 01:01:55;;;;;;;1999.90;999.90;;;;;;;24.04;73.92;97966.81;5093980;28;20040;-65
2021/07/07 01:04:22;;;;;;;1999.90;999.90;;;;;;;24.02;74.11;97972.09;5091398;28;20055;-65
2021/07/07 01:06:49;;;;;;;1999.90;999.90;;;;;;;23.66;75.31;97958.47;5088305;28;20615;-65
2021/07/07 01:09:16;;;;;;;1999.90;999.90;;;;;;;23.45;76.19;97957.50;5081645;28;20044;-65
2021/07/07 01:11:42;;;;;;;1999.90;999.90;;;;;;;23.28;77.47;97958.50;5090546;28;20044;-65
2021/07/07 01:14:09;;;;;;;1999.90;999.90;;;;;;;23.44;76.94;97955.91;5089753;28;20113;-65
2021/07/07 01:16:36;;;;;;;1999.90;999.90;;;;;;;23.37;77.20;97953.16;5073607;28;20133;-65
2021/07/07 01:19:03;;;;;;;1999.90;999.90;;;;;;;23.27;77.78;97954.91;5090469;28;20145;-65
2021/07/07 01:21:29;;;;;;;1999.90;999.90;;;;;;;23.07;78.42;97954.69;5086445;28;20082;-65
2021/07/07 01:23:56;;;;;;;1999.90;999.90;;;;;;;22.91;79.32;97955.28;5074390;28;20499;-65
2021/07/07 01:26:22;;;;;;;1999.90;999.90;;;;;;;23.14;78.76;97953.84;5088825;28;20047;-65
2021/07/07 01:28:49;;;;;;;1999.90;999.90;;;;;;;23.02;79.21;97955.94;5090304;28;20386;-65
2021/07/07 01:31:15;;;;;;;1999.90;999.90;;;;;;;22.86;79.92;97964.94;5084827;28;20392;-65
2021/07/07 01:33:43;;;;;;;1999.90;999.90;;;;;;;22.91;79.64;97952.44;5089303;28;20444;-65
2021/07/07 01:36:10;;;;;;;1999.90;999.90;;;;;;;22.90;79.58;97950.06;5089964;28;20422;-65
2021/07/07 01:38:36;;;;;;;1999.90;999.90;;;;;;;22.93;79.33;97954.84;5090183;28;20048;-65
2021/07/07 01:41:03;;;;;;;1999.90;999.90;;;;;;;22.93;79.51;97955.63;5085151;28;20445;-65
2021/07/07 01:43:29;;;;;;;1999.90;999.90;;;;;;;23.05;79.05;97954.31;5098077;28;20090;-65
2021/07/07 01:45:56;;;;;;;1999.90;999.90;;;;;;;23.02;78.77;97963.59;5081427;28;20478;-65
2021/07/07 01:48:23;;;;;;;1999.90;999.90;;;;;;;22.94;79.15;97945.97;5079168;28;20113;-65
2021/07/07 01:50:49;;;;;;;1999.90;999.90;;;;;;;22.68;79.96;97955.88;5082371;28;20390;-65
2021/07/07 01:53:16;;;;;;;1999.90;999.90;;;;;;;22.63;80.41;97953.53;5083308;28;20060;-65
2021/07/07 01:55:42;;;;;;;1999.90;999.90;;;;;;;22.78;79.82;97951.38;5089781;28;20056;-65
2021/07/07 01:58:09;;;;;;;1999.90;999.90;;;;;;;23.00;78.75;97949.13;5082096;28;20501;-65
2021/07/07 02:00:36;;;;;;;1999.90;999.90;;;;;;;23.01;78.66;97959.19;5075750;28;20079;-66
2021/07/07 02:03:03;;;;;;;1999.90;999.90;;;;;;;23.13;78.25;97949.41;5089076;28;20048;-65
2021/07/07 02:05:34;;;;;;;1999.90;999.90;;;;;;;22.99;78.61;97964.44;5088005;28;20093;-65
2021/07/07 02:08:04;;;;;;;1999.90;999.90;;;;;;;22.78;79.66;97968.28;5075199;28;20040;-65
2021/07/07 02:10:32;;;;;;;1999.90;999.90;;;;;;;22.64;80.18;97966.38;5086045;28;20607;-65
2021/07/07 02:12:59;;;;;;;1999.90;999.90;;;;;;;22.63;80.36;97976.84;5085087;28;20041;-65
2021/07/07 02:15:33;;;;;;;1999.90;999.90;;;;;;;22.74;80.31;97973.16;5075773;28;20048;-65
2021/07/07 02:18:01;;;;;;;1999.90;999.90;;;;;;;22.80;79.63;97969.44;5084961;28;20040;-65
2021/07/07 02:20:29;;;;;;;1999.90;999.90;;;;;;;22.75;79.94;97972.72;5088722;28;20123;-65
2021/07/07 02:22:56;;;;;;;1999.90;999.90;;;;;;;22.50;80.76;97985.00;5086504;28;20394;-65
2021/07/07 02:25:29;;;;;;;1999.90;999.90;;;;;;;22.57;80.46;97984.16;5073911;28;20102;-65
2021/07/07 02:27:57;;;;;;;1999.90;999.90;;;;;;;22.83;79.19;97979.09;5085642;28;20213;-65
2021/07/07 02:30:28;;;;;;;1999.90;999.90;;;;;;;22.95;78.67;97986.22;5083139;28;20040;-65
2021/07/07 02:32:55;;;;;;;1999.90;999.90;;;;;;;22.97;78.21;97990.25;5071039;28;20114;-65
2021/07/07 02:35:28;;;;;;;1999.90;999.90;;;;;;;22.76;78.87;97985.63;5087436;28;20048;-65
2021/07/07 02:37:56;;;;;;;1999.90;999.90;;;;;;;22.65;79.24;97990.53;5082262;28;20382;-65
2021/07/07 02:40:25;;;;;;;1999.90;999.90;;;;;;;22.67;79.19;97999.34;5083491;28;20451;-65
2021/07/07 02:42:53;;;;;;;1999.90;999.90;;;;;;;22.53;79.13;97994.66;5087456;28;20052;-65
2021/07/07 02:45:20;;;;;;;1999.90;999.90;;;;;;;22.37;79.99;97995.16;5086086;28;20048;-65
2021/07/07 02:47:48;;;;;;;1999.90;999.90;;;;;;;22.25;80.75;97990.00;5071782;28;20073;-65
2021/07/07 02:50:18;;;;;;;1999.90;999.90;;;;;;;22.31;80.08;98006.06;5088667;28;20066;-65
2021/07/07 02:52:48;;;;;;;1999.90;999.90;;;;;;;22.36;80.22;97996.41;5088068;28;20407;-65
2021/07/07 02:55:17;;;;;;;1999.90;999.90;;;;;;;22.24;80.26;97999.66;5075058;28;20048;-65
2021/07/07 02:57:56;;;;;;;1999.90;999.90;;;;;;;22.16;80.64;98005.34;5089990;28;20109;-65
2021/07/07 03:00:47;;;;;;;1999.90;999.90;;;;;;;22.10;80.94;98001.34;5084948;28;20048;-65
2021/07/07 03:03:19;;;;;;;1999.90;999.90;;;;;;;22.26;80.13;98002.88;5077492;28;20294;-65
2021/07/07 03:05:54;;;;;;;1999.90;999.90;;;;;;;22.41;79.70;98012.84;5090251;28;20343;-65
2021/07/07 03:08:23;;;;;;;1999.90;999.90;;;;;;;22.59;78.79;98011.91;5078960;28;20254;-65
2021/07/07 03:10:50;;;;;;;1999.90;999.90;;;;;;;22.75;78.27;98017.03;5081833;28;20047;-65
2021/07/07 03:13:19;;;;;;;1999.90;999.90;;;;;;;22.81;77.91;98010.50;5082937;28;20333;-65
2021/07/07 03:15:46;;;;;;;1999.90;999.90;;;;;;;22.75;77.96;98017.03;5079134;28;20053;-65
2021/07/07 03:18:14;;;;;;;1999.90;999.90;;;;;;;22.77;77.79;98015.38;5081840;28;20049;-65
2021/07/07 03:20:42;;;;;;;1999.90;999.90;;;;;;;22.63;78.21;98013.50;5074449;28;20056;-65
2021/07/07 03:23:12;;;;;;;1999.90;999.90;;;;;;;22.38;79.34;98016.50;5074851;28;20139;-65
2021/07/07 03:25:39;;;;;;;1999.90;999.90;;;;;;;22.42;79.55;98013.63;5080845;28;20149;-65
2021/07/07 03:28:06;;;;;;;1999.90;999.90;;;;;;;22.25;80.42;98020.97;5075010;28;20044;-65
2021/07/07 03:30:33;;;;;;;1999.90;999.90;;;;;;;22.41;79.82;98018.47;5077250;28;20105;-65
2021/07/07 03:33:00;;;;;;;1999.90;999.90;;;;;;;22.37;79.87;98014.88;5079703;28;20560;-65
2021/07/07 03:35:27;;;;;;;1999.90;999.90;;;;;;;22.59;79.12;98026.00;5085292;28;20451;-65
2021/07/07 03:37:55;;;;;;;1999.90;999.90;;;;;;;22.64;78.99;98017.09;5088486;28;20106;-65
2021/07/07 03:40:22;;;;;;;1999.90;999.90;;;;;;;22.98;77.60;98019.22;5088354;28;20398;-65
2021/07/07 03:42:49;;;;;;;1999.90;999.90;;;;;;;23.18;76.38;98017.44;5082999;28;20039;-65
2021/07/07 03:45:18;;;;;;;1999.90;999.90;;;;;;;23.31;75.63;98019.72;5074367;28;20048;-65
2021/07/07 03:47:45;;;;;;;1999.90;999.90;;;;;;;23.87;73.85;98027.97;5084794;28;20097;-65
2021/07/07 03:50:13;;;;;;;1999.90;999.90;;;;;;;24.20;72.10;98017.81;5084340;28;20056;-65
2021/07/07 03:52:40;;;;;;;1999.90;999.90;;;;;;;24.69;70.58;98025.97;5090463;28;20055;-65
2021/07/07 03:55:09;;;;;;;1999.90;999.90;;;;;;;25.00;69.00;98022.25;5084274;28;20044;-65
2021/07/07 03:57:35;;;;;;;1999.90;999.90;;;;;;;25.47;66.92;98031.50;5085860;28;20087;-65
2021/07/07 04:00:09;;;;;;;1999.90;999.90;;;;;;;25.71;66.01;98030.59;5108152;28;20105;-65
2021/07/07 04:02:35;;;;;;;1999.90;999.90;;;;;;;25.76;65.34;98039.41;5085255;28;20101;-65
2021/07/07 04:05:03;;;;;;;1999.90;999.90;;;;;;;25.95;64.57;98040.63;5082109;28;20462;-65
2021/07/07 04:07:30;;;;;;;1999.90;999.90;;;;;;;25.99;64.36;98035.72;5090354;28;20192;-65
2021/07/07 04:09:56;;;;;;;1999.90;999.90;;;;;;;26.11;63.82;98044.75;5084651;28;20044;-65
2021/07/07 04:12:23;;;;;;;1999.90;999.90;;;;;;;26.05;62.89;98050.13;5088578;28;20040;-65
2021/07/07 04:14:49;;;;;;;1999.90;999.90;;;;;;;25.85;63.57;98041.66;5076562;28;20040;-65
2021/07/07 04:17:16;;;;;;;1999.90;999.90;;;;;;;25.48;64.26;98047.22;5078669;28;20044;-65
2021/07/07 04:19:43;;;;;;;1999.90;999.90;;;;;;;25.64;65.07;98048.56;5086855;28;20058;-65
2021/07/07 04:22:10;;;;;;;1999.90;999.90;;;;;;;26.06;63.51;98053.78;5071243;28;20434;-65
2021/07/07 04:24:36;;;;;;;1999.90;999.90;;;;;;;25.89;63.19;98052.88;5076251;28;20044;-65
2021/07/07 04:27:03;;;;;;;1999.90;999.90;;;;;;;25.81;64.32;98046.59;5078977;28;20052;-65
2021/07/07 04:29:31;;;;;;;1999.90;999.90;;;;;;;26.00;62.27;98048.63;5089323;28;20048;-65
2021/07/07 04:31:57;;;;;;;1999.90;999.90;;;;;;;25.60;62.84;98048.59;5077867;28;20052;-65
2021/07/07 04:34:25;;;;;;;1999.90;999.90;;;;;;;25.83;62.44;98049.78;5082798;28;20051;-65
2021/07/07 04:36:51;;;;;;;1999.90;999.90;;;;;;;25.97;61.96;98048.69;5082443;28;20105;-65
2021/07/07 04:39:18;;;;;;;1999.90;999.90;;;;;;;25.94;61.55;98053.19;5091095;28;20097;-65
2021/07/07 04:41:45;;;;;;;1999.90;999.90;;;;;;;25.68;62.17;98054.94;5088826;28;20097;-65
2021/07/07 04:44:11;;;;;;;1999.90;999.90;;;;;;;25.52;62.65;98052.81;5088252;28;20051;-65
2021/07/07 04:46:38;;;;;;;1999.90;999.90;;;;;;;25.98;61.86;98055.94;5089510;28;20391;-65
2021/07/07 04:49:05;;;;;;;1999.90;999.90;;;;;;;25.82;62.28;98062.34;5081601;28;20051;-65
2021/07/07 04:51:31;;;;;;;1999.90;999.90;;;;;;;25.92;61.77;98060.50;5081319;28;20102;-65
2021/07/07 04:53:58;;;;;;;1999.90;999.90;;;;;;;26.12;60.82;98060.53;5086607;28;20076;-65
2021/07/07 04:56:25;;;;;;;1999.90;999.90;;;;;;;26.20;60.25;98061.97;5084634;28;20075;-65
2021/07/07 04:58:51;;;;;;;1999.90;999.90;;;;;;;26.22;60.96;98064.38;5084737;28;20089;-65
2021/07/07 05:01:18;;;;;;;1999.90;999.90;;;;;;;25.97;60.92;98057.97;5091476;28;20052;-65
2021/07/07 05:03:45;;;;;;;1999.90;999.90;;;;;;;25.89;62.39;98059.38;5086599;28;20543;-65
2021/07/07 05:06:11;;;;;;;1999.90;999.90;;;;;;;26.44;60.51;98059.81;5081453;28;20048;-65
2021/07/07 05:08:38;;;;;;;1999.90;999.90;;;;;;;26.65;59.78;98066.22;5093161;28;20048;-65
2021/07/07 05:11:04;;;;;;;1999.90;999.90;;;;;;;26.45;60.05;98071.94;5087062;28;20102;-65
2021/07/07 05:13:32;;;;;;;1999.90;999.90;;;;;;;26.77;59.27;98074.06;5075569;28;20040;-65
2021/07/07 05:15:59;;;;;;;1999.90;999.90;;;;;;;27.02;58.18;98070.59;5093837;28;20048;-65
2021/07/07 05:18:26;;;;;;;1999.90;999.90;;;;;;;27.27;59.09;98069.13;5082723;28;20049;-66
2021/07/07 05:20:53;;;;;;;1999.90;999.90;;;;;;;27.55;56.96;98078.19;5077165;28;20082;-64
2021/07/07 05:23:19;;;;;;;1999.90;999.90;;;;;;;27.69;56.99;98071.28;5078816;28;20052;-64
2021/07/07 05:25:47;;;;;;;1999.90;999.90;;;;;;;27.72;59.08;98082.56;5085638;28;20101;-64
2021/07/07 05:28:13;;;;;;;1999.90;999.90;;;;;;;27.54;56.54;98074.53;5080436;28;20040;-64
2021/07/07 05:30:40;;;;;;;1999.90;999.90;;;;;;;27.20;57.11;98077.88;5081086;28;20087;-65
2021/07/07 05:33:09;;;;;;;1999.90;999.90;;;;;;;27.36;56.84;98082.72;5087975;28;20530;-64
2021/07/07 05:35:36;;;;;;;1999.90;999.90;;;;;;;27.69;56.54;98085.50;5101494;28;20123;-64
2021/07/07 05:38:04;;;;;;;1999.90;999.90;;;;;;;28.19;56.21;98080.44;5091188;28;20043;-64
2021/07/07 05:40:31;;;;;;;1999.90;999.90;;;;;;;28.09;54.75;98083.16;5090101;28;20097;-65
2021/07/07 05:42:58;;;;;;;1999.90;999.90;;;;;;;28.74;53.46;98084.03;5086560;28;20039;-65
2021/07/07 05:45:26;;;;;;;1999.90;999.90;;;;;;;27.92;56.80;98084.44;5079184;28;20048;-64
2021/07/07 05:47:54;;;;;;;1999.90;999.90;;;;;;;28.82;54.93;98078.91;5082233;28;20396;-65
2021/07/07 05:50:24;;;;;;;1999.90;999.90;;;;;;;29.17;52.59;98079.78;5082378;28;20429;-65
2021/07/07 05:52:51;;;;;;;1999.90;999.90;;;;;;;29.72;51.08;98078.72;5079519;28;20113;-65
2021/07/07 05:55:20;;;;;;;1999.90;999.90;;;;;;;29.95;50.15;98090.94;5089067;28;20448;-65
2021/07/07 05:57:47;;;;;;;1999.90;999.90;;;;;;;30.00;50.92;98094.00;5095551;28;20130;-65
2021/07/07 06:00:20;;;;;;;1999.90;999.90;;;;;;;29.87;50.11;98096.13;5083722;28;20044;-65
2021/07/07 06:02:48;;;;;;;1999.90;999.90;;;;;;;29.53;50.18;98096.91;5079055;28;20063;-65
2021/07/07 06:05:15;;;;;;;1999.90;999.90;;;;;;;30.03;48.55;98104.47;5088783;28;20655;-65
2021/07/07 06:07:42;;;;;;;1999.90;999.90;;;;;;;30.36;48.32;98098.34;5078102;28;20133;-65
2021/07/07 06:10:12;;;;;;;1999.90;999.90;;;;;;;30.70;49.38;98087.28;5079143;28;20058;-65
2021/07/07 06:12:40;;;;;;;1999.90;999.90;;;;;;;30.41;46.67;98104.72;5086701;28;20048;-66
2021/07/07 06:15:08;;;;;;;1999.90;999.90;;;;;;;30.39;45.99;98102.31;5076222;28;20103;-65
2021/07/07 06:17:35;;;;;;;1999.90;999.90;;;;;;;30.69;46.96;98102.81;5090391;28;20048;-65
2021/07/07 06:20:04;;;;;;;1999.90;999.90;;;;;;;30.61;45.91;98110.03;5090000;28;20052;-65
2021/07/07 06:22:31;;;;;;;1999.90;999.90;;;;;;;30.67;45.36;98111.84;5087871;28;20090;-65
2021/07/07 06:24:58;;;;;;;1999.90;999.90;;;;;;;30.91;46.54;98109.22;5089969;28;20105;-65
2021/07/07 06:27:24;;;;;;;1999.90;999.90;;;;;;;31.05;45.29;98109.94;5083161;28;20052;-65
2021/07/07 06:29:51;;;;;;;1999.90;999.90;;;;;;;31.54;46.03;98111.94;5088419;28;20064;-66
2021/07/07 06:32:18;;;;;;;1999.90;999.90;;;;;;;31.70;44.31;98110.09;5075257;28;20433;-66
2021/07/07 06:34:45;;;;;;;1999.90;999.90;;;;;;;31.16;45.04;98113.16;5082941;28;20093;-66
2021/07/07 06:37:12;;;;;;;1999.90;999.90;;;;;;;31.54;44.44;98111.16;5083409;28;20052;-66
2021/07/07 06:39:39;;;;;;;1999.90;999.90;;;;;;;32.02;44.63;98122.13;5087727;28;20055;-66
2021/07/07 06:42:06;;;;;;;1999.90;999.90;;;;;;;32.31;44.46;98113.06;5086191;28;20043;-66
2021/07/07 06:44:32;;;;;;;1999.90;999.90;;;;;;;32.56;41.70;98117.63;5077944;28;20116;-66
2021/07/07 06:46:59;;;;;;;1999.90;999.90;;;;;;;32.68;42.28;98127.31;5087915;28;20048;-66
2021/07/07 06:49:25;;;;;;;1999.90;999.90;;;;;;;32.61;40.21;98119.81;5090126;28;20052;-66
2021/07/07 06:51:52;;;;;;;1999.90;999.90;;;;;;;32.71;41.77;98119.81;5090743;28;20048;-66
2021/07/07 06:54:19;;;;;;;1999.90;999.90;;;;;;;32.85;41.14;98121.19;5077004;28;20052;-66
2021/07/07 06:56:45;;;;;;;1999.90;999.90;;;;;;;32.79;41.03;98121.06;5088316;28;20085;-66
2021/07/07 06:59:12;;;;;;;1999.90;999.90;;;;;;;33.27;40.68;98123.22;5090805;28;20048;-66
2021/07/07 07:01:38;;;;;;;1999.90;999.90;;;;;;;32.42;42.22;98129.72;5084008;28;20078;-66
2021/07/07 07:04:05;;;;;;;1999.90;999.90;;;;;;;32.32;40.55;98120.38;5090123;28;20377;-66
2021/07/07 07:06:32;;;;;;;1999.90;999.90;;;;;;;32.11;41.55;98133.59;5089446;28;20137;-66
2021/07/07 07:08:58;;;;;;;1999.90;999.90;;;;;;;32.73;40.69;98138.09;5075898;28;20056;-66
2021/07/07 07:11:27;;;;;;;1999.90;999.90;;;;;;;31.63;46.36;98136.13;5080380;28;20055;-66
2021/07/07 07:13:54;;;;;;;1999.90;999.90;;;;;;;31.81;46.46;98138.97;5080213;28;20398;-66
2021/07/07 07:16:21;;;;;;;1999.90;999.90;;;;;;;31.95;45.05;98132.63;5085424;28;20052;-67
2021/07/07 07:18:48;;;;;;;1999.90;999.90;;;;;;;31.98;45.84;98136.59;5087181;28;20040;-66
2021/07/07 07:21:16;;;;;;;1999.90;999.90;;;;;;;30.91;49.22;98131.28;5087814;28;20087;-66
2021/07/07 07:23:43;;;;;;;1999.90;999.90;;;;;;;30.50;52.12;98136.16;5071534;28;20048;-66
2021/07/07 07:26:13;;;;;;;1999.90;999.90;;;;;;;31.07;51.76;98122.47;5078021;28;20102;-66
2021/07/07 07:28:41;;;;;;;1999.90;999.90;;;;;;;31.53;47.59;98136.06;5083452;28;20077;-66
2021/07/07 07:31:07;;;;;;;1999.90;999.90;;;;;;;31.66;47.47;98138.81;5081363;28;20044;-65
2021/07/07 07:33:34;;;;;;;1999.90;999.90;;;;;;;31.81;48.92;98133.25;5078890;28;20048;-64
2021/07/07 07:36:22;;;;;;;1999.90;999.90;;;;;;;31.66;48.33;98140.88;5083944;28;20131;-65
2021/07/07 07:38:57;;;;;;;1999.90;999.90;;;;;;;32.14;48.15;98141.19;5090115;28;20093;-64
2021/07/07 07:41:30;;;;;;;1999.90;999.90;;;;;;;32.65;47.07;98143.34;5087034;28;20044;-65
2021/07/07 07:43:57;;;;;;;1999.90;999.90;;;;;;;32.43;47.25;98148.50;5085385;28;20129;-64
2021/07/07 07:46:30;;;;;;;1999.90;999.90;;;;;;;32.91;46.46;98153.63;5080122;28;20350;-65
2021/07/07 07:48:59;;;;;;;1999.90;999.90;;;;;;;33.18;45.78;98149.81;5073855;28;20048;-65
2021/07/07 07:51:30;;;;;;;1999.90;999.90;;;;;;;33.30;44.19;98151.72;5085087;28;20044;-65
2021/07/07 07:53:57;;;;;;;1999.90;999.90;;;;;;;33.50;43.10;98148.22;5087829;28;20361;-65
2021/07/07 07:56:24;;;;;;;1999.90;999.90;;;;;;;33.22;42.51;98150.47;5070959;28;20044;-65
2021/07/07 07:58:51;;;;;;;1999.90;999.90;;;;;;;32.88;44.18;98155.38;5087249;28;20070;-65
2021/07/07 08:01:18;;;;;;;1999.90;999.90;;;;;;;32.76;45.50;98147.78;5086634;28;20402;-65
2021/07/07 08:03:44;;;;;;;1999.90;999.90;;;;;;;32.09;45.75;98154.03;5078273;28;20040;-65
2021/07/07 08:06:11;;;;;;;1999.90;999.90;;;;;;;32.24;45.52;98156.28;5078562;28;20330;-65
2021/07/07 08:08:38;;;;;;;1999.90;999.90;;;;;;;31.91;45.54;98157.72;5082627;28;20086;-65
2021/07/07 08:11:04;;;;;;;1999.90;999.90;;;;;;;32.77;44.23;98164.47;5087923;28;20105;-65
2021/07/07 08:13:31;;;;;;;1999.90;999.90;;;;;;;32.50;43.56;98162.47;5081548;28;20044;-65
2021/07/07 08:15:58;;;;;;;1999.90;999.90;;;;;;;32.91;45.46;98163.00;5087333;28;20110;-65
2021/07/07 08:18:25;;;;;;;1999.90;999.90;;;;;;;32.83;46.64;98159.69;5093789;28;20052;-65
2021/07/07 08:20:52;;;;;;;1999.90;999.90;;;;;;;33.40;43.38;98155.31;5082461;28;20048;-65
2021/07/07 08:23:19;;;;;;;1999.90;999.90;;;;;;;33.27;41.90;98166.97;5084501;28;20409;-65
2021/07/07 08:25:46;;;;;;;1999.90;999.90;;;;;;;33.68;42.93;98149.41;5080225;28;20063;-65
2021/07/07 08:28:13;;;;;;;1999.90;999.90;;;;;;;33.79;43.48;98151.72;5082050;28;20052;-65
2021/07/07 08:30:41;;;;;;;1999.90;999.90;;;;;;;34.15;40.55;98150.63;5091843;28;20048;-65
2021/07/07 08:33:08;;;;;;;1999.90;999.90;;;;;;;34.15;40.32;98161.31;5093107;28;20053;-65
2021/07/07 08:35:38;;;;;;;1999.90;999.90;;;;;;;34.01;39.62;98152.19;5091502;28;20044;-65
2021/07/07 08:38:05;;;;;;;1999.90;999.90;;;;;;;34.54;37.84;98167.03;5085598;28;20581;-66
2021/07/07 08:40:33;;;;;;;1999.90;999.90;;;;;;;35.08;37.67;98167.69;5076765;28;20470;-65
2021/07/07 08:42:59;;;;;;;1999.90;999.90;;;;;;;35.58;40.40;98174.69;5082052;28;20468;-65
2021/07/07 08:45:26;;;;;;;1999.90;999.90;;;;;;;35.30;36.92;98174.28;5090318;28;20070;-65
2021/07/07 08:47:53;;;;;;;1999.90;999.90;;;;;;;35.25;42.14;98165.09;5095879;28;20052;-65
2021/07/07 08:50:27;;;;;;;1999.90;999.90;;;;;;;35.47;37.63;98169.59;5088363;28;20464;-65
2021/07/07 08:52:56;;;;;;;1999.90;999.90;;;;;;;35.19;36.24;98166.28;5088929;28;20101;-65
2021/07/07 08:55:22;;;;;;;1999.90;999.90;;;;;;;34.82;39.69;98164.66;5084982;28;20056;-65
2021/07/07 08:57:50;;;;;;;1999.90;999.90;;;;;;;35.36;37.36;98167.34;5075850;28;20118;-66
2021/07/07 09:00:28;;;;;;;1999.90;999.90;;;;;;;35.84;36.12;98169.06;5102087;27;20380;-65
2021/07/07 09:03:18;;;;;;;1999.90;999.90;;;;;;;35.62;35.50;98170.31;5091805;28;20066;-65
2021/07/07 09:06:02;;;;;;;1999.90;999.90;;;;;;;35.75;35.04;98172.84;5081698;28;20101;-66
2021/07/07 09:08:32;;;;;;;;;;;;;;;35.67;35.80;98171.69;5079916;28;20056;-66
2021/07/07 09:11:27;;;;;;;1999.90;999.90;;;;;;;35.69;35.42;98174.84;5083036;28;19989;-67
2021/07/07 09:14:14;;;;;;;1999.90;999.90;;;;;;;34.87;36.26;98166.06;5082984;28;20101;-66
2021/07/07 09:17:01;;;;;;;1999.90;999.90;;;;;;;35.72;36.21;98168.09;5075470;28;20044;-66
2021/07/07 09:19:31;;;;;;;1999.90;999.90;;;;;;;36.51;36.54;98170.34;5081750;28;20119;-66
2021/07/07 09:22:05;;;;;;;1999.90;999.90;;;;;;;34.27;39.66;98171.75;5084014;28;20105;-66
2021/07/07 09:24:34;;;;;;;1999.90;999.90;;;;;;;33.87;38.54;98170.16;5080372;28;20509;-66
2021/07/07 09:27:18;;;;;;;1999.90;999.90;;;;;;;35.02;38.12;98169.69;5091395;28;20074;-66
2021/07/07 09:29:54;;;;;;;1999.90;999.90;;;;;;;35.02;37.02;98172.56;5080855;28;20052;-66
2021/07/07 09:32:27;;;;;;;1999.90;999.90;;;;;;;35.52;38.19;98176.69;5085010;28;20105;-66
2021/07/07 09:35:03;;;;;;;1999.90;999.90;;;;;;;35.49;35.99;98169.88;5079248;28;20044;-66
2021/07/07 09:37:38;;;;;;;1999.90;999.90;;;;;;;35.81;36.70;98175.81;5078803;28;20434;-66
2021/07/07 09:40:09;;;;;;;1999.90;999.90;;;;;;;35.99;35.93;98166.09;5084312;28;20044;-66
2021/07/07 09:42:38;;;;;;;1999.90;999.90;;;;;;;36.24;35.93;98172.41;5081451;28;20113;-66
2021/07/07 09:45:09;;;;;;;1999.90;999.90;;;;;;;36.16;34.82;98172.03;5076767;28;20040;-66
2021/07/07 09:47:36;;;;;;;1999.90;999.90;;;;;;;36.17;35.24;98181.47;5088112;28;20502;-67
2021/07/07 09:50:03;;;;;;;1999.90;999.90;;;;;;;35.59;36.88;98170.53;5085215;28;20081;-66
2021/07/07 09:52:31;;;;;;;1999.90;999.90;;;;;;;36.46;35.51;98177.63;5083558;28;20048;-67
2021/07/07 09:55:03;;;;;;;1999.90;999.90;;;;;;;36.97;35.15;98175.25;5084013;28;20049;-66
2021/07/07 09:57:30;;;;;;;1999.90;999.90;;;;;;;37.40;33.61;98178.19;5089422;28;20360;-66
2021/07/07 09:59:56;;;;;;;1999.90;999.90;;;;;;;36.53;34.84;98174.28;5086319;28;20048;-66
2021/07/07 10:02:23;;;;;;;1999.90;999.90;;;;;;;36.74;33.90;98177.88;5078537;28;20048;-66
2021/07/07 10:04:52;;;;;;;1999.90;999.90;;;;;;;37.01;37.01;98179.47;5086380;28;20052;-66
2021/07/07 10:07:19;;;;;;;1999.90;999.90;;;;;;;36.71;33.77;98184.66;5080779;28;20105;-66
2021/07/07 10:09:47;;;;;;;1999.90;999.90;;;;;;;36.29;34.12;98186.09;5081559;28;20060;-66
2021/07/07 10:12:16;;;;;;;1999.90;999.90;;;;;;;37.33;32.69;98190.19;5084335;28;20105;-66
2021/07/07 10:14:44;;;;;;;1999.90;999.90;;;;;;;36.75;33.37;98176.59;5089694;28;20062;-66
2021/07/07 10:17:11;;;;;;;1999.90;999.90;;;;;;;37.29;32.96;98186.75;5089675;28;20234;-66
2021/07/07 10:19:38;;;;;;;1999.90;999.90;;;;;;;38.45;31.46;98177.59;5090696;28;20051;-66
2021/07/07 10:22:05;;;;;;;1999.90;999.90;;;;;;;37.99;32.46;98181.66;5077157;28;20048;-66
2021/07/07 10:24:33;;;;;;;1999.90;999.90;;;;;;;37.99;33.65;98187.41;5090011;28;20387;-66
2021/07/07 10:27:03;;;;;;;1999.90;999.90;;;;;;;38.03;33.24;98188.75;5086007;28;20049;-66
2021/07/07 10:29:30;;;;;;;1999.90;999.90;;;;;;;36.84;34.23;98182.19;5083661;28;20095;-67
2021/07/07 10:31:59;;;;;;;1999.90;999.90;;;;;;;35.52;36.61;98176.69;5083726;28;20040;-66
2021/07/07 10:34:28;;;;;;;1999.90;999.90;;;;;;;36.26;37.44;98175.56;5087927;28;20072;-66
2021/07/07 10:37:00;;;;;;;1999.90;999.90;;;;;;;37.54;32.34;98182.97;5083409;28;20114;-66
2021/07/07 10:39:27;;;;;;;1999.90;999.90;;;;;;;37.67;34.88;98179.66;5091319;28;20052;-66
2021/07/07 10:41:55;;;;;;;1999.90;999.90;;;;;;;37.77;32.77;98188.09;5083968;28;20056;-66
2021/07/07 10:44:21;;;;;;;1999.90;999.90;;;;;;;37.33;34.80;98179.44;5076449;28;20143;-67
2021/07/07 10:47:09;;;;;;;1999.90;999.90;;;;;;;37.60;33.85;98179.34;5091878;28;20044;-67
2021/07/07 10:49:36;;;;;;;1999.90;999.90;;;;;;;38.39;30.58;98185.47;5080746;28;20449;-66
2021/07/07 10:52:03;;;;;;;1999.90;999.90;;;;;;;38.36;31.96;98186.53;5080223;28;20445;-66
2021/07/07 10:54:35;;;;;;;1999.90;999.90;;;;;;;36.86;34.80;98178.03;5072289;28;20102;-66
2021/07/07 10:57:05;;;;;;;1999.90;999.90;;;;;;;37.11;32.39;98185.03;5084311;28;20105;-66
2021/07/07 10:59:39;;;;;;;1999.90;999.90;;;;;;;37.58;31.87;98187.72;5083657;28;20058;-66